createdAt,value
2022-07-27T00:01:51.039Z,12.35
2022-07-27T00:04:21.136Z,12.70
2022-07-27T00:06:48.428Z,12.40
2022-07-27T00:09:15.929Z,12.50
2022-07-27T00:11:42.701Z,12.88
2022-07-27T00:14:09.342Z,13.05
2022-07-27T00:16:36.287Z,12.77
2022-07-27T00:19:03.393Z,12.45
2022-07-27T00:21:30.070Z,12.25
2022-07-27T00:23:56.753Z,11.90
2022-07-27T00:26:23.394Z,12.40
2022-07-27T00:28:50.286Z,12.18
2022-07-27T00:31:17.396Z,12.63
2022-07-27T00:33:44.021Z,12.57
2022-07-27T00:36:10.895Z,13.35
2022-07-27T00:38:37.498Z,12.77
2022-07-27T00:41:04.469Z,14.20
2022-07-27T00:43:31.076Z,13.82
2022-07-27T00:45:57.682Z,15.10
2022-07-27T00:48:24.381Z,15.20
2022-07-27T00:50:53.313Z,14.40
2022-07-27T00:53:19.984Z,14.32
2022-07-27T00:55:46.615Z,13.75
2022-07-27T00:58:13.524Z,14.00
2022-07-27T01:00:40.204Z,13.88
2022-07-27T01:03:09.270Z,14.23
2022-07-27T01:05:42.914Z,14.27
2022-07-27T01:08:12.748Z,13.95
2022-07-27T01:10:40.910Z,13.38
2022-07-27T01:13:12.678Z,12.95
2022-07-27T01:15:41.238Z,13.48
2022-07-27T01:18:27.173Z,13.27
2022-07-27T01:20:54.890Z,12.45
2022-07-27T01:23:23.376Z,13.02
2022-07-27T01:25:49.985Z,13.02
2022-07-27T01:28:16.599Z,13.38
2022-07-27T01:30:43.222Z,12.57
2022-07-27T01:33:10.218Z,13.27
2022-07-27T01:35:38.302Z,12.98
2022-07-27T01:38:05.571Z,12.90
2022-07-27T01:40:34.066Z,12.27
2022-07-27T01:43:00.669Z,12.77
2022-07-27T01:45:27.383Z,13.13
2022-07-27T01:47:53.987Z,14.90
2022-07-27T01:50:20.576Z,13.63
2022-07-27T01:52:47.179Z,14.63
2022-07-27T01:55:13.806Z,14.40
2022-07-27T01:57:40.788Z,14.32
2022-07-27T02:00:13.678Z,14.40
2022-07-27T02:02:40.738Z,14.23
2022-07-27T02:05:08.245Z,14.18
2022-07-27T02:07:34.877Z,13.40
2022-07-27T02:10:01.493Z,13.95
2022-07-27T02:12:37.664Z,12.95
2022-07-27T02:15:15.199Z,13.68
2022-07-27T02:17:46.215Z,13.07
2022-07-27T02:20:15.395Z,13.60
2022-07-27T02:22:42.901Z,13.70
2022-07-27T02:25:10.956Z,13.68
2022-07-27T02:27:37.892Z,13.57
2022-07-27T02:30:05.628Z,13.63
2022-07-27T02:32:32.317Z,13.05
2022-07-27T02:34:59.038Z,12.88
2022-07-27T02:37:26.284Z,13.27
2022-07-27T02:39:53.149Z,13.52
2022-07-27T02:42:20.207Z,13.55
2022-07-27T02:44:46.746Z,13.60
2022-07-27T02:47:13.354Z,14.00
2022-07-27T02:49:39.970Z,12.85
2022-07-27T02:52:06.882Z,13.43
2022-07-27T02:54:33.784Z,13.50
2022-07-27T02:57:02.908Z,13.38
2022-07-27T02:59:29.527Z,13.15
2022-07-27T03:01:56.187Z,13.27
2022-07-27T03:04:23.244Z,13.50
2022-07-27T03:06:49.896Z,13.57
2022-07-27T03:09:16.805Z,13.95
2022-07-27T03:11:43.451Z,12.93
2022-07-27T03:14:10.161Z,13.45
2022-07-27T03:16:36.860Z,13.80
2022-07-27T03:19:03.553Z,12.88
2022-07-27T03:21:30.215Z,13.18
2022-07-27T03:23:56.809Z,13.05
2022-07-27T03:26:23.422Z,13.20
2022-07-27T03:28:50.027Z,12.40
2022-07-27T03:31:16.781Z,12.70
2022-07-27T03:33:43.586Z,12.95
2022-07-27T03:36:10.147Z,13.23
2022-07-27T03:38:36.718Z,12.77
2022-07-27T03:41:03.637Z,12.90
2022-07-27T03:43:30.258Z,12.88
2022-07-27T03:45:56.904Z,12.68
2022-07-27T03:48:23.561Z,13.00
2022-07-27T03:50:50.287Z,13.50
2022-07-27T03:53:17.842Z,13.35
2022-07-27T03:55:44.884Z,13.73
2022-07-27T03:58:11.531Z,13.55
2022-07-27T04:00:38.183Z,13.23
2022-07-27T04:03:05.015Z,12.77
2022-07-27T04:05:32.108Z,12.38
2022-07-27T04:07:58.828Z,12.90
2022-07-27T04:10:30.856Z,12.27
2022-07-27T04:12:58.644Z,12.43
2022-07-27T04:17:56.586Z,12.48
2022-07-27T04:20:24.507Z,12.90
2022-07-27T04:22:51.141Z,13.57
2022-07-27T04:25:17.709Z,14.63
2022-07-27T04:27:44.354Z,14.65
2022-07-27T04:30:11.481Z,15.23
2022-07-27T04:32:38.546Z,14.73
2022-07-27T04:35:06.503Z,15.55
2022-07-27T04:37:33.759Z,14.90
2022-07-27T04:40:01.010Z,15.15
2022-07-27T04:42:28.582Z,15.30
2022-07-27T04:44:55.357Z,15.45
2022-07-27T04:47:21.975Z,16.13
2022-07-27T04:49:48.695Z,15.30
2022-07-27T04:52:16.398Z,15.85
2022-07-27T04:54:43.226Z,15.32
2022-07-27T04:57:09.927Z,15.45
2022-07-27T04:59:36.592Z,14.38
2022-07-27T05:02:03.788Z,12.35
2022-07-27T05:04:30.555Z,12.45
2022-07-27T05:06:57.876Z,12.75
2022-07-27T05:09:24.700Z,12.05
2022-07-27T05:11:51.904Z,12.20
2022-07-27T05:14:19.578Z,11.93
2022-07-27T05:16:48.077Z,11.20
2022-07-27T05:19:15.232Z,11.38
2022-07-27T05:24:10.000Z,11.18
2022-07-27T05:26:37.533Z,10.77
2022-07-27T05:29:04.358Z,11.63
2022-07-27T05:31:31.186Z,10.70
2022-07-27T05:33:58.561Z,11.13
2022-07-27T05:36:25.796Z,10.43
2022-07-27T05:38:52.487Z,10.23
2022-07-27T05:41:26.512Z,10.80
2022-07-27T05:43:55.162Z,10.35
2022-07-27T05:46:22.416Z,11.57
2022-07-27T05:51:15.995Z,10.70
2022-07-27T05:53:42.622Z,10.38
2022-07-27T05:56:09.207Z,11.05
2022-07-27T05:58:36.171Z,11.00
2022-07-27T06:01:02.859Z,11.25
2022-07-27T06:03:29.612Z,10.77
2022-07-27T06:06:16.190Z,11.10
2022-07-27T06:08:42.885Z,10.45
2022-07-27T06:11:09.574Z,10.85
2022-07-27T06:13:37.057Z,10.43
2022-07-27T06:16:09.574Z,10.50
2022-07-27T06:18:36.419Z,10.68
2022-07-27T06:21:03.436Z,10.00
2022-07-27T07:46:16.742Z,11.25
2022-07-27T07:48:44.135Z,11.50
2022-07-27T07:51:11.586Z,11.05
2022-07-27T07:53:41.598Z,11.52
2022-07-27T07:56:09.205Z,11.73
2022-07-27T07:58:35.782Z,11.65
2022-07-27T08:01:02.375Z,12.30
2022-07-27T08:03:29.070Z,12.95
2022-07-27T08:05:55.797Z,13.52
2022-07-27T08:08:24.835Z,13.05
2022-07-27T08:10:51.753Z,11.98
2022-07-27T08:13:22.230Z,12.68
2022-07-27T08:15:50.179Z,12.43
2022-07-27T08:18:16.763Z,13.25
2022-07-27T08:20:43.498Z,12.70
2022-07-27T08:23:12.572Z,13.02
2022-07-27T08:25:39.828Z,12.93
2022-07-27T08:28:07.572Z,13.32
2022-07-27T08:30:34.900Z,13.63
2022-07-27T08:33:03.800Z,13.10
2022-07-27T08:35:32.374Z,12.02
2022-07-27T08:38:00.273Z,11.75
2022-07-27T08:40:39.848Z,12.18
2022-07-27T08:43:08.817Z,11.68
2022-07-27T08:45:37.297Z,11.43
2022-07-27T08:48:04.415Z,11.00
2022-07-27T08:50:31.236Z,8.50
2022-07-27T08:53:03.941Z,8.30
2022-07-27T08:55:32.749Z,8.48
2022-07-27T08:58:03.145Z,8.18
2022-07-27T09:00:31.744Z,8.18
2022-07-27T09:02:58.551Z,8.73
2022-07-27T09:07:54.763Z,8.20
2022-07-27T09:10:36.308Z,8.38
2022-07-27T09:13:33.302Z,8.18
2022-07-27T09:16:21.421Z,8.25
2022-07-27T09:18:49.085Z,7.90
2022-07-27T09:21:19.837Z,7.50
2022-07-27T09:23:55.710Z,8.75
2022-07-27T09:26:33.394Z,7.80
2022-07-27T09:29:21.100Z,7.95
2022-07-27T09:31:51.851Z,7.55
2022-07-27T09:34:30.928Z,7.78
2022-07-27T09:36:58.808Z,7.90
2022-07-27T09:39:27.595Z,7.63
2022-07-27T09:42:01.256Z,8.60
2022-07-27T09:44:43.517Z,7.80
2022-07-27T09:47:27.085Z,7.28
2022-07-27T09:50:15.232Z,8.02
2022-07-27T09:52:41.984Z,7.80
2022-07-27T09:55:08.950Z,7.40
2022-07-27T09:57:56.700Z,7.68
2022-07-27T10:00:24.280Z,7.50
2022-07-27T10:02:52.413Z,7.43
2022-07-27T10:05:21.600Z,7.40
2022-07-27T10:07:49.484Z,7.40
2022-07-27T10:10:20.166Z,7.68
2022-07-27T10:12:54.156Z,7.60
2022-07-27T10:15:23.499Z,7.03
2022-07-27T10:17:57.902Z,7.65
2022-07-27T10:20:24.911Z,7.35
2022-07-27T10:22:56.575Z,7.00
2022-07-27T10:25:25.295Z,7.28
2022-07-27T10:28:29.771Z,7.40
2022-07-27T10:31:17.471Z,7.47
2022-07-27T10:33:46.670Z,7.10
2022-07-27T10:36:19.678Z,6.75
2022-07-27T10:38:57.603Z,6.93
2022-07-27T10:41:24.172Z,7.07
2022-07-27T10:44:11.321Z,7.15
2022-07-27T10:46:43.508Z,6.22
2022-07-27T10:49:20.101Z,7.10
2022-07-27T10:51:47.318Z,7.25
2022-07-27T10:54:29.471Z,7.43
2022-07-27T10:56:59.462Z,7.07
2022-07-27T10:59:58.152Z,7.10
2022-07-27T11:02:42.516Z,6.80
2022-07-27T11:05:42.487Z,7.35
2022-07-27T11:08:35.647Z,6.93
2022-07-27T11:10:45.855Z,7.15
2022-07-27T11:13:13.439Z,8.00
2022-07-27T11:15:40.114Z,8.60
2022-07-27T12:30:01.671Z,5.70
2022-07-27T12:32:31.710Z,5.75
2022-07-27T12:34:58.770Z,5.32
2022-07-27T12:37:32.484Z,5.60
2022-07-27T12:39:59.870Z,5.30
2022-07-27T12:42:34.747Z,5.95
2022-07-27T12:45:15.676Z,5.30
2022-07-27T12:47:42.653Z,5.78
2022-07-27T12:50:14.134Z,5.90
2022-07-27T12:52:51.114Z,6.20
2022-07-27T12:55:19.595Z,6.10
2022-07-27T12:57:56.680Z,5.72
2022-07-27T13:00:30.848Z,5.88
2022-07-27T13:03:00.707Z,5.80
2022-07-27T13:05:27.535Z,5.78
2022-07-27T13:10:20.989Z,5.65
2022-07-27T13:12:48.515Z,6.60
2022-07-27T13:15:16.595Z,5.95
2022-07-27T13:17:44.617Z,6.30
2022-07-27T13:20:12.647Z,5.90
2022-07-27T13:35:29.305Z,5.00
2022-07-27T13:40:22.539Z,5.00
2022-07-27T13:45:15.679Z,5.20
2022-07-27T13:47:42.637Z,5.30
2022-07-27T13:50:17.809Z,5.80
2022-07-27T13:52:46.476Z,5.30
2022-07-27T13:55:14.562Z,5.50
2022-07-27T13:57:41.357Z,5.22
2022-07-27T14:02:34.989Z,5.80
2022-07-27T14:07:30.864Z,5.10
2022-07-27T14:10:16.377Z,5.20
2022-07-27T14:12:42.966Z,5.40
2022-07-27T14:15:10.077Z,5.35
2022-07-27T14:17:37.537Z,4.90
2022-07-27T14:20:05.805Z,4.85
2022-07-27T14:22:32.395Z,5.40
2022-07-27T14:24:59.004Z,5.40
2022-07-27T14:27:25.654Z,4.88
2022-07-27T14:29:52.244Z,5.20
2022-07-27T14:32:18.883Z,5.15
2022-07-27T14:34:45.457Z,5.75
2022-07-27T14:37:12.128Z,5.07
2022-07-27T14:42:06.348Z,5.35
2022-07-27T14:47:01.962Z,4.60
2022-07-27T14:49:28.779Z,5.13
2022-07-27T14:54:21.917Z,6.80
2022-07-27T14:56:48.536Z,6.70
2022-07-27T14:59:15.640Z,6.30
2022-07-27T15:01:42.840Z,7.15
2022-07-27T15:04:09.576Z,6.13
2022-07-27T15:06:39.020Z,6.93
2022-07-27T15:09:07.665Z,6.88
2022-07-27T15:11:34.863Z,6.60
2022-07-27T15:14:05.205Z,6.78
2022-07-27T15:16:32.208Z,6.65
2022-07-27T15:18:59.133Z,6.53
2022-07-27T15:23:52.609Z,6.60
2022-07-27T15:26:19.423Z,6.88
2022-07-27T15:28:46.110Z,6.53
2022-07-27T15:31:13.355Z,6.50
2022-07-27T15:33:40.445Z,6.53
2022-07-27T15:36:07.451Z,6.43
2022-07-27T15:38:34.085Z,6.03
2022-07-27T15:41:00.801Z,6.53
2022-07-27T15:43:27.428Z,6.80
2022-07-27T15:45:54.097Z,6.57
2022-07-27T15:48:20.858Z,6.95
2022-07-27T15:50:52.608Z,6.90
2022-07-27T15:53:21.655Z,6.97
2022-07-27T15:55:48.850Z,6.18
2022-07-27T15:58:19.458Z,6.53
2022-07-27T16:00:48.623Z,7.05
2022-07-27T16:03:16.810Z,6.75
2022-07-27T16:05:44.765Z,6.47
2022-07-27T16:08:11.582Z,6.90
2022-07-27T16:13:06.672Z,6.40
2022-07-27T16:15:53.215Z,6.30
2022-07-27T16:18:19.989Z,6.38
2022-07-27T16:20:46.583Z,6.20
2022-07-27T16:23:17.900Z,6.47
2022-07-27T16:26:03.931Z,6.85
2022-07-27T16:28:33.701Z,6.75
2022-07-27T16:31:00.517Z,7.20
2022-07-27T16:35:53.725Z,6.90
2022-07-27T16:38:20.284Z,6.70
2022-07-27T16:40:46.914Z,7.10
2022-07-27T16:43:13.504Z,7.38
2022-07-27T16:45:40.108Z,7.03
2022-07-27T16:48:06.790Z,6.95
2022-07-27T16:50:33.376Z,7.45
2022-07-27T16:53:01.351Z,7.68
2022-07-27T16:55:28.292Z,7.40
2022-07-27T17:00:22.624Z,7.60
2022-07-27T17:02:49.212Z,8.23
2022-07-27T17:05:16.117Z,8.07
2022-07-27T17:10:10.000Z,8.13
2022-07-27T17:12:38.864Z,8.20
2022-07-27T17:15:07.040Z,8.07
2022-07-27T17:17:34.096Z,7.65
2022-07-27T17:20:00.725Z,8.50
2022-07-27T17:22:27.623Z,7.80
2022-07-27T17:24:54.341Z,8.63
2022-07-27T17:27:22.029Z,6.93
2022-07-27T17:29:48.866Z,7.60
2022-07-27T17:32:15.452Z,7.82
2022-07-27T17:34:42.057Z,7.25
2022-07-27T17:37:08.639Z,7.43
2022-07-27T17:39:35.540Z,6.75
2022-07-27T17:42:02.183Z,6.38
2022-07-27T17:44:28.847Z,6.65
2022-07-27T17:46:55.517Z,6.43
2022-07-27T17:49:22.219Z,6.88
2022-07-27T17:51:48.894Z,6.72
2022-07-27T17:54:15.538Z,6.63
2022-07-27T17:56:42.119Z,8.65
2022-07-27T17:59:34.638Z,6.78
2022-07-27T18:04:23.464Z,6.80
2022-07-27T18:06:50.118Z,6.82
2022-07-27T18:09:17.396Z,6.63
2022-07-27T18:11:44.580Z,6.80
2022-07-27T18:16:40.878Z,7.07
2022-07-27T18:19:08.532Z,7.18
2022-07-27T18:21:36.021Z,7.05
2022-07-27T18:24:02.828Z,6.90
2022-07-27T18:26:29.433Z,7.55
2022-07-27T18:28:57.668Z,8.07
2022-07-27T18:31:24.861Z,7.65
2022-07-27T18:33:54.378Z,11.10
2022-07-27T18:36:21.394Z,8.90
2022-07-27T18:41:18.996Z,8.38
2022-07-27T18:43:51.336Z,9.88
2022-07-27T18:46:22.062Z,8.30
2022-07-27T18:48:49.009Z,10.65
2022-07-27T18:56:12.084Z,7.85
2022-07-27T18:58:38.874Z,7.60
2022-07-27T19:01:05.584Z,7.95
2022-07-27T19:03:32.314Z,7.10
2022-07-27T19:05:58.965Z,7.70
2022-07-27T19:08:25.745Z,7.40
2022-07-27T19:10:52.590Z,7.75
2022-07-27T19:13:19.409Z,6.97
2022-07-27T19:15:46.119Z,7.57
2022-07-27T19:18:12.755Z,7.47
2022-07-27T19:20:39.453Z,8.13
2022-07-27T19:23:07.347Z,6.78
2022-07-27T19:25:34.370Z,7.30
2022-07-27T19:30:28.143Z,7.05
2022-07-27T19:32:54.861Z,7.32
2022-07-27T19:35:21.504Z,7.20
2022-07-27T19:37:48.109Z,7.60
2022-07-27T19:40:42.865Z,7.45
2022-07-27T19:43:06.630Z,7.15
2022-07-27T19:45:33.669Z,7.72
2022-07-27T19:50:28.397Z,8.18
2022-07-27T19:52:55.200Z,7.80
2022-07-27T19:55:21.854Z,8.48
2022-07-27T19:57:48.452Z,8.02
2022-07-27T20:00:15.594Z,9.70
2022-07-27T20:02:42.330Z,9.05
2022-07-27T20:05:09.526Z,7.97
2022-07-27T20:10:05.234Z,8.90
2022-07-27T20:12:32.030Z,8.70
2022-07-27T20:14:58.737Z,8.02
2022-07-27T20:17:25.378Z,9.52
2022-07-27T20:19:52.038Z,9.82
2022-07-27T20:22:18.691Z,9.00
2022-07-27T20:24:45.313Z,8.20
2022-07-27T20:27:12.114Z,8.45
2022-07-27T20:29:38.855Z,8.60
2022-07-27T20:32:07.513Z,8.45
2022-07-27T20:34:34.121Z,7.85
2022-07-27T20:37:00.892Z,8.20
2022-07-27T20:39:27.483Z,7.72
2022-07-27T20:41:54.132Z,7.88
2022-07-27T20:44:23.703Z,7.88
2022-07-27T20:46:50.279Z,7.72
2022-07-27T20:49:17.728Z,8.05
2022-07-27T20:51:45.124Z,7.45
2022-07-27T20:54:13.285Z,8.63
2022-07-27T20:56:40.276Z,7.35
2022-07-27T20:59:07.772Z,7.95
2022-07-27T21:01:35.797Z,7.93
2022-07-27T21:04:02.429Z,8.00
2022-07-27T21:06:29.135Z,7.53
2022-07-27T21:08:55.758Z,7.53
2022-07-27T21:11:22.312Z,7.82
2022-07-27T21:13:48.974Z,7.30
2022-07-27T21:16:15.657Z,7.55
2022-07-27T21:18:42.252Z,7.95
2022-07-27T21:21:08.909Z,7.30
2022-07-27T21:23:54.032Z,6.85
2022-07-27T21:26:20.765Z,7.50
2022-07-27T21:28:48.658Z,7.88
2022-07-27T21:31:15.288Z,7.43
2022-07-27T21:33:41.916Z,7.60
2022-07-27T21:36:08.943Z,7.32
2022-07-27T21:38:35.692Z,7.32
2022-07-27T21:41:02.275Z,7.68
2022-07-27T21:43:28.885Z,7.55
2022-07-27T21:45:55.539Z,7.07
2022-07-27T21:48:22.716Z,7.05
2022-07-27T21:53:15.855Z,6.88
2022-07-27T21:55:42.442Z,7.63
2022-07-27T21:58:12.230Z,7.85
2022-07-27T22:00:39.242Z,7.35
2022-07-27T22:03:06.409Z,7.60
2022-07-27T22:08:00.227Z,9.40
2022-07-27T22:12:54.362Z,9.85
2022-07-27T22:15:21.022Z,9.82
2022-07-27T22:17:50.321Z,9.05
2022-07-27T22:20:18.416Z,9.38
2022-07-27T22:22:45.244Z,9.40
2022-07-27T22:25:11.894Z,9.98
2022-07-27T22:27:38.678Z,10.25
2022-07-27T22:30:06.429Z,10.63
2022-07-27T22:32:33.015Z,10.43
2022-07-27T22:34:59.665Z,10.20
2022-07-27T22:37:26.908Z,9.52
2022-07-27T22:42:20.052Z,10.57
2022-07-27T22:44:46.684Z,10.23
2022-07-27T22:47:13.361Z,10.88
2022-07-27T22:49:40.217Z,11.27
2022-07-27T22:52:07.534Z,11.57
2022-07-27T22:57:05.809Z,10.52
2022-07-27T22:59:33.555Z,10.27
2022-07-27T23:02:00.561Z,10.18
2022-07-27T23:04:27.437Z,10.88
2022-07-27T23:06:54.062Z,11.25
2022-07-27T23:09:21.303Z,11.50
2022-07-27T23:14:14.860Z,10.98
2022-07-27T23:16:43.078Z,10.45
2022-07-27T23:19:10.198Z,11.25
2022-07-27T23:21:37.513Z,10.55
2022-07-27T23:24:04.943Z,10.82
2022-07-27T23:26:31.818Z,11.55
2022-07-27T23:28:58.432Z,11.07
2022-07-27T23:31:26.176Z,11.23
2022-07-27T23:33:52.972Z,10.82
2022-07-27T23:36:19.616Z,26.85
2022-07-27T23:38:46.207Z,43.13
2022-07-27T23:41:12.839Z,18.90
2022-07-27T23:43:39.439Z,11.10
2022-07-27T23:48:33.545Z,10.60
2022-07-27T23:51:00.174Z,10.10
2022-07-27T23:53:28.443Z,10.63
2022-07-27T23:55:55.118Z,10.40
2022-07-27T23:58:21.814Z,9.82
